Terminal Aerodrome Forecast
Issued by NWS

Home | Current Version | Previous Version | Text Only | Print | Product List | Glossary On
Versions: 1 2 3 4 5 6 7 8 9 10 11 12 13 14
000
FTUS43 KLSX 241400 AAA
TAFSUS
TAF AMD
KSUS 241410Z 2414/2512 24005KT P6SM SCT020 BKN200
      TEMPO 2414/2415 BKN020
     FM250000 VRB03KT P6SM SCT250=

USA.gov is the U.S. government's official web portal to all federal, state and local government web resources and services.